Time;durP1;ratioP1;P1;durP2;ratioP2;P2;SDS_P1;SDS_P2;PMS_P1;PMS_P2;Temp;Humidity;BMP_temperature;BMP_pressure;BME280_temperature;BME280_humidity;BME280_pressure;Samples;Min_cycle;Max_cycle;Signal;HPM_P1;HPM_P2
2022/07/07 00:00:19;;;;;;;4.57;3.05;;;15.70;99.90;;;;;;5045811;28;20109;-63
2022/07/07 00:02:46;;;;;;;4.97;3.53;;;15.80;99.90;;;;;;5051092;28;20067;-63
2022/07/07 00:05:13;;;;;;;3.55;3.05;;;15.80;99.90;;;;;;5051164;28;20059;-63
2022/07/07 00:07:40;;;;;;;4.32;3.47;;;15.80;99.90;;;;;;5051409;28;20415;-62
2022/07/07 00:10:07;;;;;;;3.38;3.08;;;15.80;99.90;;;;;;5043710;28;20056;-62
2022/07/07 00:12:34;;;;;;;;;;;15.80;99.90;;;;;;5051755;28;20044;-62
2022/07/07 00:15:01;;;;;;;5.55;3.40;;;15.70;99.90;;;;;;5051069;28;19932;-63
2022/07/07 00:17:27;;;;;;;3.58;3.25;;;15.60;99.90;;;;;;5051200;28;20049;-63
2022/07/07 00:19:54;;;;;;;5.18;3.53;;;15.60;99.90;;;;;;5045605;28;20049;-62
2022/07/07 00:22:21;;;;;;;4.65;3.50;;;15.50;99.90;;;;;;5051316;28;20037;-63
2022/07/07 00:24:48;;;;;;;5.78;3.30;;;15.50;99.90;;;;;;5051356;28;20037;-62
2022/07/07 00:27:14;;;;;;;5.13;3.65;;;15.40;99.90;;;;;;5044841;28;20497;-62
2022/07/07 00:29:43;;;;;;;6.35;3.60;;;15.40;99.90;;;;;;5050972;28;20041;-62
2022/07/07 00:32:11;;;;;;;4.70;3.40;;;15.30;99.90;;;;;;5050851;28;20037;-60
2022/07/07 00:34:37;;;;;;;;;;;15.30;99.90;;;;;;5051592;28;20040;-62
2022/07/07 00:37:04;;;;;;;3.78;3.13;;;15.40;99.90;;;;;;5043562;28;19943;-62
2022/07/07 00:39:31;;;;;;;7.10;3.90;;;15.30;99.90;;;;;;5050761;28;20041;-62
2022/07/07 00:41:58;;;;;;;4.15;3.10;;;15.20;99.90;;;;;;5050476;28;20048;-62
2022/07/07 00:44:25;;;;;;;3.67;3.33;;;15.20;99.90;;;;;;5046987;28;20084;-62
2022/07/07 00:46:54;;;;;;;4.13;3.72;;;15.20;99.90;;;;;;5049372;28;20049;-62
2022/07/07 00:49:21;;;;;;;5.25;3.92;;;15.20;99.90;;;;;;5051067;28;20409;-62
2022/07/07 00:51:49;;;;;;;4.20;3.80;;;15.20;99.90;;;;;;5049070;28;20048;-61
2022/07/07 00:54:16;;;;;;;4.65;3.85;;;15.20;99.90;;;;;;5050836;28;20049;-62
2022/07/07 00:56:43;;;;;;;3.75;3.42;;;15.20;99.90;;;;;;5050630;28;20872;-62
2022/07/07 00:59:14;;;;;;;3.95;3.58;;;15.20;99.90;;;;;;5050876;28;20066;-62
2022/07/07 01:01:42;;;;;;;3.13;2.85;;;15.20;99.90;;;;;;5051215;28;20391;-61
2022/07/07 01:04:12;;;;;;;3.63;3.25;;;15.10;99.90;;;;;;5054885;28;20041;-62
2022/07/07 01:06:40;;;;;;;7.63;3.67;;;15.10;99.90;;;;;;5055234;28;20052;-62
2022/07/07 01:09:07;;;;;;;5.38;3.42;;;15.10;99.90;;;;;;5050927;28;20045;-61
2022/07/07 01:11:55;;;;;;;6.85;3.35;;;15.00;99.90;;;;;;5050145;28;20448;-62
2022/07/07 01:14:23;;;;;;;3.88;3.05;;;15.00;99.90;;;;;;5035041;28;20038;-61
2022/07/07 01:16:51;;;;;;;4.13;3.22;;;15.00;99.90;;;;;;5035066;28;20041;-61
2022/07/07 01:19:20;;;;;;;3.50;3.20;;;14.90;99.90;;;;;;5048387;28;20048;-62
2022/07/07 01:22:00;;;;;;;6.20;3.80;;;14.90;99.90;;;;;;5036358;28;20414;-62
2022/07/07 01:24:28;;;;;;;5.70;3.72;;;14.90;99.90;;;;;;5054561;28;20413;-61
2022/07/07 01:27:07;;;;;;;5.25;4.05;;;14.80;99.90;;;;;;5053011;28;20037;-62
2022/07/07 01:29:39;;;;;;;9.55;3.95;;;14.70;99.90;;;;;;5054616;28;20432;-62
2022/07/07 01:32:08;;;;;;;6.03;3.83;;;14.60;99.90;;;;;;5054126;28;20486;-62
2022/07/07 01:34:36;;;;;;;8.82;4.15;;;14.60;99.90;;;;;;5048179;28;20049;-62
2022/07/07 01:37:04;;;;;;;5.22;3.40;;;14.60;99.90;;;;;;5046003;28;20041;-62
2022/07/07 01:39:31;;;;;;;4.32;3.92;;;14.60;99.90;;;;;;5054502;28;20048;-61
2022/07/07 01:41:58;;;;;;;5.80;3.40;;;14.60;99.90;;;;;;5053961;28;20045;-61
2022/07/07 01:44:25;;;;;;;4.70;3.60;;;14.50;99.90;;;;;;5049917;28;20448;-61
2022/07/07 01:46:52;;;;;;;5.10;3.55;;;14.50;99.90;;;;;;5054172;28;20044;-62
2022/07/07 01:49:19;;;;;;;6.43;3.90;;;14.60;99.90;;;;;;5054455;28;20092;-62
2022/07/07 01:51:45;;;;;;;5.32;3.78;;;14.60;99.90;;;;;;5053685;28;20059;-62
2022/07/07 01:54:12;;;;;;;4.68;3.80;;;14.50;99.90;;;;;;5047712;28;20052;-61
2022/07/07 01:56:39;;;;;;;7.80;3.60;;;14.60;99.90;;;;;;5054152;28;20041;-62
2022/07/07 01:59:06;;;;;;;5.10;3.38;;;14.60;99.90;;;;;;5036368;28;20048;-61
2022/07/07 02:01:33;;;;;;;;;;;14.60;99.90;;;;;;5046320;28;20057;-62
2022/07/07 02:04:00;;;;;;;8.00;3.60;;;14.50;99.90;;;;;;5053377;28;19924;-62
2022/07/07 02:06:27;;;;;;;6.22;3.63;;;14.60;99.90;;;;;;5053977;28;20045;-62
2022/07/07 02:08:54;;;;;;;8.13;3.67;;;14.60;99.90;;;;;;5054033;28;20045;-62
2022/07/07 02:11:20;;;;;;;9.57;4.07;;;14.60;99.90;;;;;;5044886;28;20473;-61
2022/07/07 02:13:49;;;;;;;4.07;3.58;;;14.60;99.90;;;;;;5053588;28;20555;-62
2022/07/07 02:16:20;;;;;;;4.70;4.30;;;14.60;99.90;;;;;;5053684;28;20485;-61
2022/07/07 02:18:48;;;;;;;5.82;3.90;;;14.50;99.90;;;;;;5052033;28;20045;-62
2022/07/07 02:21:15;;;;;;;6.53;3.90;;;14.50;99.90;;;;;;5046586;28;20037;-62
2022/07/07 02:23:43;;;;;;;;;;;14.50;99.90;;;;;;5054267;28;20049;-62
2022/07/07 02:26:10;;;;;;;4.78;4.38;;;14.50;99.90;;;;;;5053622;28;19924;-62
2022/07/07 02:28:38;;;;;;;5.45;4.03;;;14.50;99.90;;;;;;5047972;28;20099;-62
2022/07/07 02:31:06;;;;;;;7.65;3.92;;;14.40;99.90;;;;;;5044824;28;20044;-62
2022/07/07 02:33:33;;;;;;;6.80;3.75;;;14.40;99.90;;;;;;5053401;28;20044;-62
2022/07/07 02:36:00;;;;;;;;;;;14.30;99.90;;;;;;5053947;28;20037;-61
2022/07/07 02:38:27;;;;;;;7.80;4.18;;;14.30;99.90;;;;;;5048442;28;19927;-62
2022/07/07 02:40:54;;;;;;;4.55;3.95;;;14.30;99.90;;;;;;5052547;28;20057;-62
2022/07/07 02:43:20;;;;;;;8.27;3.83;;;14.30;99.90;;;;;;5069602;22;20045;-61
2022/07/07 02:45:49;;;;;;;4.45;3.65;;;14.30;99.90;;;;;;5051209;28;20037;-61
2022/07/07 02:48:18;;;;;;;5.35;4.20;;;14.30;99.90;;;;;;5072872;28;20049;-61
2022/07/07 02:50:45;;;;;;;5.45;3.78;;;14.20;99.90;;;;;;5072633;28;20489;-61
2022/07/07 02:53:13;;;;;;;5.82;3.97;;;14.20;99.90;;;;;;5071734;28;20050;-61
2022/07/07 02:55:41;;;;;;;7.75;4.63;;;14.20;99.90;;;;;;5093089;28;20048;-61
2022/07/07 02:58:09;;;;;;;5.20;4.28;;;14.20;99.90;;;;;;5093297;28;20032;-61
2022/07/07 03:00:36;;;;;;;6.28;4.28;;;14.20;99.90;;;;;;5092755;28;20492;-60
2022/07/07 03:03:05;;;;;;;5.03;4.00;;;14.20;99.90;;;;;;5085716;28;20035;-61
2022/07/07 03:05:32;;;;;;;5.45;4.13;;;14.20;99.90;;;;;;5092882;28;20036;-61
2022/07/07 03:07:59;;;;;;;;;;;14.20;99.90;;;;;;5093431;28;20043;-61
2022/07/07 03:10:26;;;;;;;4.50;4.00;;;14.30;99.90;;;;;;5089853;28;19927;-61
2022/07/07 03:12:53;;;;;;;6.03;3.97;;;14.30;99.90;;;;;;5092561;28;20040;-62
2022/07/07 03:15:20;;;;;;;4.50;4.10;;;14.30;99.90;;;;;;5086659;28;20040;-61
2022/07/07 03:17:48;;;;;;;5.03;3.75;;;14.30;99.90;;;;;;5092736;28;20057;-61
2022/07/07 03:20:16;;;;;;;6.28;4.25;;;14.30;99.90;;;;;;5092476;28;20082;-61
2022/07/07 03:22:43;;;;;;;5.57;4.18;;;14.30;99.90;;;;;;5091947;28;20051;-61
2022/07/07 03:25:11;;;;;;;4.65;4.07;;;14.30;99.90;;;;;;5085829;28;20048;-61
2022/07/07 03:27:38;;;;;;;;;;;14.30;99.90;;;;;;5092826;28;20047;-61
2022/07/07 03:30:06;;;;;;;5.00;3.75;;;14.30;99.90;;;;;;5092278;28;20326;-61
2022/07/07 03:32:33;;;;;;;6.85;4.15;;;14.30;99.90;;;;;;5092568;28;20066;-61
2022/07/07 03:35:00;;;;;;;5.55;3.83;;;14.30;99.90;;;;;;5084740;28;20035;-61
2022/07/07 03:37:29;;;;;;;5.93;4.22;;;14.30;99.90;;;;;;5092246;28;20047;-61
2022/07/07 03:39:56;;;;;;;7.57;4.40;;;14.30;99.90;;;;;;5092082;28;20044;-61
2022/07/07 03:42:22;;;;;;;6.88;4.30;;;14.20;99.90;;;;;;5092415;28;20500;-61
2022/07/07 03:44:49;;;;;;;10.18;4.82;;;14.20;99.90;;;;;;5084116;28;20036;-61
2022/07/07 03:47:16;;;;;;;6.32;3.72;;;14.20;99.90;;;;;;5092289;28;20040;-61
2022/07/07 03:49:48;;;;;;;6.30;4.60;;;14.30;99.90;;;;;;5092300;28;20079;-61
2022/07/07 03:52:16;;;;;;;;;;;14.30;99.90;;;;;;5089172;28;20081;-61
2022/07/07 03:54:43;;;;;;;7.17;4.40;;;14.30;99.90;;;;;;5092070;28;19927;-61
2022/07/07 03:57:10;;;;;;;9.05;4.13;;;14.30;99.90;;;;;;5092005;28;20040;-61
2022/07/07 03:59:37;;;;;;;6.35;4.00;;;14.30;99.90;;;;;;5069544;28;20047;-61
2022/07/07 04:02:04;;;;;;;6.00;4.70;;;14.30;99.90;;;;;;5083230;28;20044;-61
2022/07/07 04:04:31;;;;;;;9.70;4.53;;;14.30;99.90;;;;;;5091908;28;20052;-61
2022/07/07 04:06:58;;;;;;;6.03;4.20;;;14.30;99.90;;;;;;5092046;28;20481;-61
2022/07/07 04:09:25;;;;;;;8.98;4.25;;;14.40;99.90;;;;;;5086129;28;20040;-61
2022/07/07 04:11:52;;;;;;;4.70;4.28;;;14.40;99.90;;;;;;5091385;28;20036;-61
2022/07/07 04:14:19;;;;;;;5.45;4.18;;;14.40;99.90;;;;;;5091739;28;20055;-60
2022/07/07 04:16:45;;;;;;;6.57;4.28;;;14.40;99.90;;;;;;5077407;28;20048;-61
2022/07/07 04:19:12;;;;;;;4.47;4.00;;;14.40;99.90;;;;;;5084669;28;20043;-61
2022/07/07 04:21:39;;;;;;;4.70;4.03;;;14.40;99.90;;;;;;5091098;28;20033;-61
2022/07/07 04:24:06;;;;;;;6.65;4.20;;;14.50;99.90;;;;;;5091722;28;20048;-61
2022/07/07 04:26:33;;;;;;;7.35;4.00;;;14.50;99.90;;;;;;5085507;28;20040;-61
2022/07/07 04:28:59;;;;;;;9.95;4.55;;;14.50;99.90;;;;;;5088819;28;20052;-60
2022/07/07 04:31:26;;;;;;;5.55;4.30;;;14.50;99.90;;;;;;5091058;28;20036;-61
2022/07/07 04:33:53;;;;;;;4.35;3.95;;;14.70;99.90;;;;;;5091178;28;20047;-61
2022/07/07 04:36:20;;;;;;;6.97;3.60;;;14.80;99.90;;;;;;5086606;28;20040;-61
2022/07/07 04:38:46;;;;;;;6.78;4.13;;;14.90;99.90;;;;;;5091485;28;20094;-61
2022/07/07 04:41:13;;;;;;;8.48;5.55;;;14.90;99.90;;;;;;5091208;28;20036;-61
2022/07/07 04:43:40;;;;;;;7.40;4.38;;;15.00;99.90;;;;;;5082576;28;20036;-63
2022/07/07 04:46:07;;;;;;;4.30;3.85;;;15.10;99.90;;;;;;5091323;28;20048;-61
2022/07/07 04:48:33;;;;;;;5.88;4.10;;;15.10;99.90;;;;;;5073381;28;20109;-61
2022/07/07 04:51:00;;;;;;;5.65;3.92;;;15.20;99.90;;;;;;5085842;28;20602;-61
2022/07/07 04:53:27;;;;;;;6.78;3.97;;;15.30;99.90;;;;;;5085474;28;20044;-61
2022/07/07 04:55:54;;;;;;;4.40;3.70;;;15.30;99.90;;;;;;5082808;28;20047;-61
2022/07/07 04:58:21;;;;;;;7.32;4.40;;;15.40;99.90;;;;;;5081520;28;20062;-61
2022/07/07 05:00:47;;;;;;;4.18;3.58;;;15.50;99.90;;;;;;5079682;28;20798;-61
2022/07/07 05:03:14;;;;;;;3.72;3.42;;;15.50;99.90;;;;;;5090176;28;20493;-62
2022/07/07 05:05:41;;;;;;;5.82;4.00;;;15.60;99.90;;;;;;5087923;28;20110;-61
2022/07/07 05:08:08;;;;;;;8.20;3.80;;;15.60;99.90;;;;;;5081652;28;20481;-62
2022/07/07 05:10:35;;;;;;;9.00;4.43;;;15.60;99.90;;;;;;5071632;28;20048;-62
2022/07/07 05:13:01;;;;;;;5.75;3.97;;;15.80;99.90;;;;;;5082317;28;20040;-64
2022/07/07 05:15:28;;;;;;;5.63;4.10;;;15.90;99.90;;;;;;5081653;28;20467;-62
2022/07/07 05:17:55;;;;;;;5.40;3.75;;;16.00;99.90;;;;;;5082834;28;20040;-62
2022/07/07 05:20:25;;;;;;;9.32;3.83;;;16.10;99.90;;;;;;5073887;28;20040;-62
2022/07/07 05:22:52;;;;;;;4.95;3.80;;;16.10;99.90;;;;;;5077825;28;20036;-62
2022/07/07 05:25:18;;;;;;;5.25;3.58;;;16.10;99.90;;;;;;5083870;28;20048;-61
2022/07/07 05:27:45;;;;;;;5.93;3.47;;;16.20;99.90;;;;;;5068066;28;20070;-62
2022/07/07 05:30:19;;;;;;;5.43;3.58;;;16.30;99.90;;;;;;5062763;28;20048;-62
2022/07/07 05:32:46;;;;;;;6.68;3.45;;;16.40;99.90;;;;;;5091042;28;20477;-62
2022/07/07 05:35:12;;;;;;;5.60;4.03;;;16.40;99.90;;;;;;5084282;28;20443;-62
2022/07/07 05:37:41;;;;;;;4.80;3.53;;;16.50;99.90;;;;;;5088593;28;20052;-62
2022/07/07 05:40:08;;;;;;;4.13;3.53;;;16.60;99.90;;;;;;5089580;28;20036;-62
2022/07/07 05:42:35;;;;;;;6.95;3.33;;;16.70;99.90;;;;;;5070180;28;20518;-62
2022/07/07 05:45:03;;;;;;;5.32;3.50;;;16.80;99.90;;;;;;5089742;28;20044;-62
2022/07/07 05:47:30;;;;;;;4.82;3.90;;;16.90;99.90;;;;;;5093566;28;20040;-62
2022/07/07 05:49:57;;;;;;;7.50;4.20;;;16.80;99.90;;;;;;5094107;28;20040;-62
2022/07/07 05:52:24;;;;;;;5.38;3.80;;;16.90;99.90;;;;;;5090777;28;20047;-62
2022/07/07 05:54:50;;;;;;;10.35;4.60;;;17.00;99.90;;;;;;5094331;28;20044;-62
2022/07/07 05:57:17;;;;;;;5.85;4.40;;;17.20;99.90;;;;;;5094422;28;20044;-62
2022/07/07 05:59:44;;;;;;;4.57;4.18;;;17.40;99.90;;;;;;5092483;28;20055;-62
2022/07/07 06:02:10;;;;;;;6.43;4.60;;;17.40;99.90;;;;;;5093944;28;20445;-62
2022/07/07 06:04:37;;;;;;;8.50;4.40;;;17.40;99.90;;;;;;5094532;28;20476;-62
2022/07/07 06:07:04;;;;;;;7.13;4.20;;;17.50;99.90;;;;;;5093962;28;20044;-62
2022/07/07 06:09:31;;;;;;;5.88;4.03;;;17.40;99.90;;;;;;5089434;28;20045;-62
2022/07/07 06:11:58;;;;;;;6.80;4.63;;;17.50;99.90;;;;;;5092828;28;20051;-62
2022/07/07 06:14:26;;;;;;;7.70;4.07;;;17.50;99.90;;;;;;5093982;28;20093;-62
2022/07/07 06:16:53;;;;;;;5.68;3.90;;;17.50;99.90;;;;;;5094111;28;20051;-62
2022/07/07 06:19:20;;;;;;;7.30;4.20;;;17.40;99.90;;;;;;5093179;28;20067;-62
2022/07/07 06:21:47;;;;;;;7.68;4.18;;;17.40;99.90;;;;;;5093279;28;20071;-62
2022/07/07 06:24:14;;;;;;;4.82;4.22;;;17.40;99.90;;;;;;5093873;28;20043;-62
2022/07/07 06:26:41;;;;;;;4.95;3.80;;;17.30;99.90;;;;;;5093974;28;20044;-62
2022/07/07 06:29:07;;;;;;;9.23;3.95;;;17.30;99.90;;;;;;5087401;28;20047;-63
2022/07/07 06:31:34;;;;;;;6.40;4.65;;;17.40;99.90;;;;;;5093345;28;20097;-62
2022/07/07 06:34:01;;;;;;;7.18;4.47;;;17.40;99.90;;;;;;5093648;28;20047;-61
2022/07/07 06:36:28;;;;;;;5.47;4.30;;;17.50;99.90;;;;;;5091530;28;20047;-62
2022/07/07 06:38:55;;;;;;;5.05;4.47;;;17.40;99.90;;;;;;5093457;28;20040;-62
2022/07/07 06:41:23;;;;;;;5.93;4.15;;;17.60;99.90;;;;;;5093189;28;20040;-62
2022/07/07 06:43:50;;;;;;;10.30;3.83;;;17.70;99.90;;;;;;5087599;28;20041;-62
2022/07/07 06:46:17;;;;;;;7.30;3.88;;;17.80;99.90;;;;;;5093366;28;20054;-62
2022/07/07 06:48:44;;;;;;;7.10;3.67;;;18.00;99.90;;;;;;5093280;28;20082;-62
2022/07/07 06:51:11;;;;;;;11.10;4.07;;;18.10;99.90;;;;;;5090885;28;20048;-62
2022/07/07 06:53:37;;;;;;;7.03;4.03;;;18.10;99.90;;;;;;5089542;28;20040;-62
2022/07/07 06:56:04;;;;;;;9.13;3.70;;;17.90;99.90;;;;;;5073153;28;20072;-62
2022/07/07 06:58:31;;;;;;;8.00;3.92;;;17.80;99.90;;;;;;5073020;28;20051;-62
2022/07/07 07:00:58;;;;;;;5.82;3.80;;;17.50;99.90;;;;;;5074924;28;20040;-62
2022/07/07 07:03:25;;;;;;;6.03;4.00;;;17.40;99.90;;;;;;5092882;28;20048;-62
2022/07/07 07:05:53;;;;;;;8.23;4.38;;;17.40;99.90;;;;;;5093032;28;20089;-62
2022/07/07 07:08:24;;;;;;;5.35;3.53;;;17.20;99.90;;;;;;5093139;28;20127;-62
2022/07/07 07:10:51;;;;;;;4.93;3.78;;;17.10;99.90;;;;;;5086108;28;20037;-62
2022/07/07 07:13:17;;;;;;;6.03;3.40;;;17.00;99.90;;;;;;5074553;28;20111;-62
2022/07/07 07:15:45;;;;;;;10.32;4.25;;;16.90;99.90;;;;;;5092857;28;20040;-62
2022/07/07 07:18:12;;;;;;;5.88;3.90;;;17.00;99.90;;;;;;5092920;28;20513;-62
2022/07/07 07:20:40;;;;;;;;;;;17.00;99.90;;;;;;5085718;28;20043;-61
2022/07/07 07:23:07;;;;;;;3.53;3.17;;;17.10;99.90;;;;;;5092651;28;19985;-61
2022/07/07 07:25:34;;;;;;;10.73;4.20;;;17.20;99.90;;;;;;5092592;28;20488;-61
2022/07/07 07:28:01;;;;;;;4.45;3.67;;;17.30;99.90;;;;;;5092750;28;20047;-61
2022/07/07 07:30:28;;;;;;;9.25;3.90;;;17.30;99.90;;;;;;5083666;28;20047;-61
2022/07/07 07:32:55;;;;;;;13.95;4.55;;;17.50;99.90;;;;;;5092364;28;20044;-61
2022/07/07 07:35:21;;;;;;;9.38;3.58;;;17.60;99.90;;;;;;5092383;28;20052;-61
2022/07/07 07:37:48;;;;;;;8.07;3.97;;;17.60;99.90;;;;;;5092412;28;20040;-61
2022/07/07 07:40:15;;;;;;;5.40;3.80;;;17.80;99.90;;;;;;5083641;28;20542;-61
2022/07/07 07:42:42;;;;;;;5.70;4.07;;;17.80;99.90;;;;;;5087388;28;20075;-61
2022/07/07 07:45:12;;;;;;;3.83;3.33;;;17.70;99.90;;;;;;5073386;28;20059;-61
2022/07/07 07:47:42;;;;;;;5.45;4.25;;;17.60;99.90;;;;;;5092222;28;20097;-61
2022/07/07 07:50:12;;;;;;;8.80;4.50;;;17.60;99.90;;;;;;5089269;28;20443;-61
2022/07/07 07:52:40;;;;;;;4.90;3.45;;;17.50;99.90;;;;;;5091917;28;20075;-61
2022/07/07 07:55:09;;;;;;;7.95;3.65;;;17.50;99.90;;;;;;5091663;28;20501;-61
2022/07/07 07:57:37;;;;;;;8.07;3.75;;;17.50;99.90;;;;;;5085177;28;20134;-61
2022/07/07 08:00:06;;;;;;;7.13;3.95;;;17.50;99.90;;;;;;5082865;28;20044;-61
2022/07/07 08:02:37;;;;;;;9.68;3.70;;;17.50;99.90;;;;;;5091908;28;20126;-62
2022/07/07 08:05:04;;;;;;;;;;;17.50;99.90;;;;;;5092209;28;20485;-62
2022/07/07 08:07:32;;;;;;;5.00;3.70;;;17.40;99.90;;;;;;5087629;28;19920;-62
2022/07/07 08:10:00;;;;;;;4.18;3.50;;;17.40;99.90;;;;;;5090455;28;20066;-62
2022/07/07 08:12:27;;;;;;;6.90;3.40;;;17.30;99.90;;;;;;5091481;28;20123;-62
2022/07/07 08:14:54;;;;;;;6.45;3.47;;;17.20;99.90;;;;;;5085593;28;20041;-62
2022/07/07 08:17:21;;;;;;;7.28;3.35;;;17.10;99.90;;;;;;5091421;28;20043;-62
2022/07/07 08:19:49;;;;;;;;;;;17.10;99.90;;;;;;5091931;28;20409;-62
2022/07/07 08:22:15;;;;;;;6.70;4.07;;;17.10;99.90;;;;;;5091526;28;20269;-62
2022/07/07 08:24:42;;;;;;;6.40;3.50;;;17.00;99.90;;;;;;5086822;28;20101;-62
2022/07/07 08:27:09;;;;;;;5.70;3.88;;;17.10;99.90;;;;;;5091470;28;20505;-62
2022/07/07 08:29:38;;;;;;;8.13;4.15;;;17.20;99.90;;;;;;5091226;28;20036;-62
2022/07/07 08:32:07;;;;;;;6.88;3.95;;;17.10;99.90;;;;;;5083089;28;20039;-62
2022/07/07 08:34:34;;;;;;;5.40;3.60;;;17.10;99.90;;;;;;5091249;28;20032;-61
2022/07/07 08:37:08;;;;;;;5.25;3.75;;;17.30;99.90;;;;;;5091243;28;20048;-62
2022/07/07 08:39:35;;;;;;;;;;;17.30;99.90;;;;;;5089819;28;20438;-62
2022/07/07 08:42:02;;;;;;;9.00;4.20;;;17.30;99.90;;;;;;5090440;28;20013;-62
2022/07/07 08:45:37;;;;;;;6.82;4.30;;;17.40;99.90;;;;;;5096757;22;20053;-62
2022/07/07 08:48:43;;;;;;;9.43;4.30;;;17.60;99.90;;;;;;5085344;28;20042;-62
2022/07/07 08:51:11;;;;;;;13.07;4.95;;;17.90;99.90;;;;;;5080030;28;20052;-63
2022/07/07 08:53:37;;;;;;;;;;;17.90;99.90;;;;;;5090605;28;20045;-62
2022/07/07 08:56:07;;;;;;;7.05;4.13;;;18.00;99.90;;;;;;5074482;28;20698;-62
2022/07/07 08:58:35;;;;;;;5.60;3.80;;;18.00;99.90;;;;;;5072711;28;20094;-63
2022/07/07 09:01:23;;;;;;;4.78;3.90;;;18.00;99.90;;;;;;5090924;28;20082;-62
2022/07/07 09:03:50;;;;;;;5.93;3.58;;;18.00;99.90;;;;;;5086401;28;20049;-62
2022/07/07 09:06:17;;;;;;;5.95;3.67;;;18.00;99.90;;;;;;5084429;28;20052;-62
2022/07/07 09:08:50;;;;;;;5.35;3.85;;;18.10;99.90;;;;;;5073225;28;20138;-63
2022/07/07 09:11:25;;;;;;;6.85;3.63;;;18.10;99.90;;;;;;5072413;28;20086;-62
2022/07/07 09:14:17;;;;;;;4.88;3.42;;;18.00;99.90;;;;;;5077656;28;20493;-62
2022/07/07 09:16:43;;;;;;;4.85;3.42;;;17.80;99.90;;;;;;5090896;28;20048;-62
2022/07/07 09:19:21;;;;;;;6.95;3.85;;;17.80;99.90;;;;;;5090906;28;20435;-62
2022/07/07 09:21:48;;;;;;;4.78;4.18;;;17.70;99.90;;;;;;5081242;28;20055;-62
2022/07/07 09:24:16;;;;;;;6.60;3.63;;;17.70;99.90;;;;;;5094675;28;20055;-62
2022/07/07 09:26:48;;;;;;;10.32;4.55;;;17.70;99.90;;;;;;5094878;28;20389;-62
2022/07/07 09:29:18;;;;;;;5.57;4.20;;;17.60;99.90;;;;;;5075703;28;20044;-62
2022/07/07 09:31:59;;;;;;;6.30;4.35;;;17.60;99.90;;;;;;5075973;28;20040;-62
2022/07/07 09:34:34;;;;;;;6.53;4.20;;;17.60;99.90;;;;;;5094408;28;20040;-62
2022/07/07 09:39:52;;;;;;;4.55;3.97;;;17.60;99.90;;;;;;5092451;28;20051;-62
2022/07/07 09:42:36;;;;;;;9.85;3.72;;;17.60;99.90;;;;;;5094375;28;20044;-62
2022/07/07 09:45:10;;;;;;;11.48;4.40;;;17.60;99.90;;;;;;5087506;28;20132;-62
2022/07/07 09:47:37;;;;;;;7.97;4.30;;;17.80;99.90;;;;;;5076116;28;20492;-62
2022/07/07 09:50:13;;;;;;;7.28;4.10;;;17.80;99.90;;;;;;5094077;28;20039;-62
2022/07/07 09:52:45;;;;;;;5.70;3.80;;;17.90;99.90;;;;;;5092231;28;20040;-63
2022/07/07 09:55:12;;;;;;;5.22;3.72;;;18.00;99.90;;;;;;5070726;28;20039;-63
2022/07/07 09:57:42;;;;;;;5.47;4.00;;;18.20;99.90;;;;;;5092206;28;20047;-63
2022/07/07 10:00:09;;;;;;;7.47;3.90;;;18.10;99.90;;;;;;5093490;28;20123;-62
2022/07/07 10:02:39;;;;;;;4.28;3.50;;;18.20;99.90;;;;;;5092052;28;20086;-63
2022/07/07 10:05:07;;;;;;;4.82;3.55;;;18.10;99.90;;;;;;5086194;28;20036;-62
2022/07/07 10:07:34;;;;;;;;;;;18.30;99.90;;;;;;5094597;28;20043;-63
2022/07/07 10:10:04;;;;;;;5.53;4.30;;;18.30;99.90;;;;;;5093599;28;19920;-63
2022/07/07 10:12:32;;;;;;;6.85;3.65;;;18.40;99.90;;;;;;5083947;28;20047;-62
2022/07/07 10:15:11;;;;;;;6.68;3.80;;;18.40;99.90;;;;;;5081041;28;20055;-63
2022/07/07 10:17:39;;;;;;;5.55;3.97;;;18.40;99.90;;;;;;5072605;28;20051;-63
2022/07/07 10:20:07;;;;;;;5.35;3.92;;;18.20;99.90;;;;;;5073231;28;20123;-63
2022/07/07 10:22:35;;;;;;;6.07;3.90;;;18.00;99.90;;;;;;5073530;28;20066;-63
2022/07/07 10:25:06;;;;;;;8.05;3.63;;;17.80;99.90;;;;;;5075641;28;20439;-63
2022/07/07 10:27:33;;;;;;;6.93;4.50;;;17.60;99.90;;;;;;5093702;28;20436;-63
2022/07/07 10:30:03;;;;;;;5.20;3.92;;;17.60;99.90;;;;;;5083897;28;20493;-63
2022/07/07 10:32:50;;;;;;;5.43;3.30;;;17.40;99.90;;;;;;5088536;28;20036;-63
2022/07/07 10:35:18;;;;;;;5.63;3.95;;;17.30;99.90;;;;;;5093679;28;20051;-63
2022/07/07 10:37:50;;;;;;;6.80;3.60;;;17.10;99.90;;;;;;5085743;28;20040;-63
2022/07/07 10:40:24;;;;;;;7.68;3.60;;;17.20;99.90;;;;;;5086657;28;20385;-62
2022/07/07 10:43:15;;;;;;;8.25;4.25;;;17.10;99.90;;;;;;5093450;28;20036;-63
2022/07/07 10:45:46;;;;;;;6.50;3.95;;;17.00;99.90;;;;;;5093512;28;20036;-62
2022/07/07 10:48:50;;;;;;;5.55;3.83;;;17.00;99.90;;;;;;5077905;28;20048;-63
2022/07/07 10:51:22;;;;;;;8.70;3.65;;;16.90;99.90;;;;;;5072856;28;20037;-62
2022/07/07 10:53:54;;;;;;;6.85;3.75;;;16.80;99.90;;;;;;5055205;28;20481;-63
2022/07/07 10:56:21;;;;;;;8.55;4.20;;;16.70;99.90;;;;;;5072760;28;20044;-62
2022/07/07 10:58:56;;;;;;;7.20;3.40;;;16.70;99.90;;;;;;5083263;28;20042;-62
2022/07/07 11:01:29;;;;;;;6.35;3.75;;;16.70;99.90;;;;;;5087121;28;20036;-62
2022/07/07 11:03:56;;;;;;;4.95;3.63;;;16.70;99.90;;;;;;5093072;28;20449;-62
2022/07/07 11:06:24;;;;;;;4.90;3.40;;;16.90;99.90;;;;;;5093046;28;20040;-62
2022/07/07 11:08:56;;;;;;;6.60;3.67;;;17.00;99.90;;;;;;5074292;28;20055;-62
2022/07/07 11:11:23;;;;;;;10.05;4.30;;;17.10;99.90;;;;;;5089359;28;20040;-62
2022/07/07 11:14:03;;;;;;;7.93;3.92;;;17.10;99.90;;;;;;5092371;28;20043;-62
2022/07/07 11:16:30;;;;;;;6.18;3.90;;;17.10;99.90;;;;;;5088282;28;20028;-62
2022/07/07 11:18:58;;;;;;;5.47;3.83;;;17.00;99.90;;;;;;5092241;28;20083;-62
2022/07/07 11:21:45;;;;;;;10.40;4.28;;;16.90;99.90;;;;;;5091791;28;20044;-62
2022/07/07 11:24:25;;;;;;;7.93;4.75;;;16.90;99.90;;;;;;5089450;28;20451;-62
2022/07/07 11:27:01;;;;;;;7.45;4.40;;;16.90;99.90;;;;;;5081228;28;20032;-62
2022/07/07 11:29:29;;;;;;;6.88;4.20;;;16.80;99.90;;;;;;5083746;28;20040;-62
2022/07/07 11:32:07;;;;;;;6.97;4.60;;;16.80;99.90;;;;;;5082756;28;20051;-62
2022/07/07 11:34:49;;;;;;;5.13;4.13;;;16.80;99.90;;;;;;5081686;28;20043;-62
2022/07/07 11:37:27;;;;;;;7.28;4.43;;;16.90;99.90;;;;;;5088663;28;20047;-62
2022/07/07 11:39:57;;;;;;;7.38;4.60;;;16.80;99.90;;;;;;5086325;28;20040;-62
2022/07/07 11:42:25;;;;;;;7.55;4.35;;;16.70;99.90;;;;;;5077866;28;20047;-62
2022/07/07 11:44:52;;;;;;;7.35;4.78;;;16.70;99.90;;;;;;5072788;28;20054;-62
2022/07/07 11:47:19;;;;;;;6.35;4.30;;;16.70;99.90;;;;;;5092457;28;20545;-62
2022/07/07 11:49:46;;;;;;;6.30;4.85;;;16.80;99.90;;;;;;5084337;28;20056;-62
2022/07/07 11:52:16;;;;;;;6.70;4.50;;;16.80;99.90;;;;;;5084949;28;20055;-62
2022/07/07 11:54:48;;;;;;;5.82;4.70;;;16.80;99.90;;;;;;5086209;28;20040;-62
2022/07/07 11:57:35;;;;;;;5.93;4.63;;;16.90;99.90;;;;;;5063217;28;20055;-62
2022/07/07 12:00:13;;;;;;;12.80;4.82;;;16.90;99.90;;;;;;5085470;28;20420;-62
2022/07/07 12:02:42;;;;;;;6.18;4.53;;;17.00;99.90;;;;;;5083272;28;20090;-62
2022/07/07 12:05:09;;;;;;;9.15;5.15;;;16.90;99.90;;;;;;5080854;28;20084;-62
2022/07/07 12:07:36;;;;;;;;;;;17.00;99.90;;;;;;5083302;28;20488;-63
2022/07/07 12:10:03;;;;;;;12.38;4.65;;;17.00;99.90;;;;;;5084889;28;20396;-62
2022/07/07 12:12:29;;;;;;;12.02;5.70;;;16.90;99.90;;;;;;5076419;28;20049;-62
2022/07/07 12:14:56;;;;;;;7.72;4.43;;;16.80;99.90;;;;;;5075910;28;20451;-62
2022/07/07 12:17:39;;;;;;;5.95;4.53;;;16.80;99.90;;;;;;5070075;28;20520;-62
2022/07/07 12:20:15;;;;;;;5.85;4.68;;;16.80;99.90;;;;;;5074591;28;20051;-62
2022/07/07 12:22:46;;;;;;;10.30;4.75;;;16.80;99.90;;;;;;5091805;28;20032;-61
2022/07/07 12:25:12;;;;;;;8.25;4.80;;;16.80;99.90;;;;;;5091776;28;20052;-62
2022/07/07 12:28:01;;;;;;;6.07;3.78;;;16.90;99.90;;;;;;5077489;28;20052;-62
2022/07/07 12:30:30;;;;;;;6.50;4.43;;;17.00;99.90;;;;;;5091073;28;20097;-62
2022/07/07 12:32:58;;;;;;;6.70;3.95;;;17.20;99.90;;;;;;5091333;28;20055;-62
2022/07/07 12:35:38;;;;;;;5.55;4.75;;;17.30;99.90;;;;;;5089441;28;20035;-62
2022/07/07 12:38:07;;;;;;;5.93;4.20;;;17.40;99.90;;;;;;5075351;28;20388;-62
2022/07/07 12:40:36;;;;;;;8.80;4.55;;;17.40;99.90;;;;;;5091001;28;20519;-62
2022/07/07 12:43:10;;;;;;;8.93;3.90;;;17.40;99.90;;;;;;5091280;28;20122;-62
2022/07/07 12:45:38;;;;;;;3.90;3.50;;;17.40;99.90;;;;;;5078311;28;20040;-62
2022/07/07 12:48:16;;;;;;;7.03;4.28;;;17.30;99.90;;;;;;5071098;28;20066;-62
2022/07/07 12:50:43;;;;;;;9.50;3.97;;;17.20;99.90;;;;;;5069750;28;20048;-62
2022/07/07 12:53:10;;;;;;;10.02;4.55;;;17.40;99.90;;;;;;5072534;28;20508;-62
2022/07/07 12:55:42;;;;;;;7.53;4.32;;;17.70;99.90;;;;;;5092482;28;20116;-62
2022/07/07 12:58:31;;;;;;;8.98;4.55;;;18.00;99.90;;;;;;5086829;28;20040;-60
2022/07/07 13:01:03;;;;;;;4.65;4.15;;;18.50;99.90;;;;;;5090461;28;20064;-63
2022/07/07 13:03:31;;;;;;;8.25;4.35;;;18.60;99.90;;;;;;5083668;28;20046;-66